sensor_id;sensor_type;location;lat;lon;timestamp;temperature;humidity
65568;DHT22;52211;50.154;8.682;2023-07-13T00:01:16;23.00;38.50
65568;DHT22;52211;50.154;8.682;2023-07-13T00:03:43;23.00;38.60
65568;DHT22;52211;50.154;8.682;2023-07-13T00:06:10;22.90;38.60
65568;DHT22;52211;50.154;8.682;2023-07-13T00:08:40;22.90;38.60
65568;DHT22;52211;50.154;8.682;2023-07-13T00:11:09;22.90;38.70
65568;DHT22;52211;50.154;8.682;2023-07-13T00:13:42;22.90;38.60
65568;DHT22;52211;50.154;8.682;2023-07-13T00:16:11;22.90;38.70
65568;DHT22;52211;50.154;8.682;2023-07-13T00:18:44;22.90;38.60
65568;DHT22;52211;50.154;8.682;2023-07-13T00:21:14;23.00;38.70
65568;DHT22;52211;50.154;8.682;2023-07-13T00:23:43;22.90;38.50
65568;DHT22;52211;50.154;8.682;2023-07-13T00:26:13;23.00;38.60
65568;DHT22;52211;50.154;8.682;2023-07-13T00:28:41;23.00;38.50
65568;DHT22;52211;50.154;8.682;2023-07-13T00:31:10;23.00;38.40
65568;DHT22;52211;50.154;8.682;2023-07-13T00:33:38;23.00;38.40
65568;DHT22;52211;50.154;8.682;2023-07-13T00:36:12;23.00;38.40
65568;DHT22;52211;50.154;8.682;2023-07-13T00:38:40;23.00;38.60
65568;DHT22;52211;50.154;8.682;2023-07-13T00:41:07;23.00;38.40
65568;DHT22;52211;50.154;8.682;2023-07-13T00:43:39;23.00;38.40
65568;DHT22;52211;50.154;8.682;2023-07-13T00:46:24;23.00;38.40
65568;DHT22;52211;50.154;8.682;2023-07-13T00:49:05;23.00;38.70
65568;DHT22;52211;50.154;8.682;2023-07-13T00:51:51;23.00;38.60
65568;DHT22;52211;50.154;8.682;2023-07-13T00:54:28;23.00;38.70
65568;DHT22;52211;50.154;8.682;2023-07-13T00:57:02;22.90;38.50
65568;DHT22;52211;50.154;8.682;2023-07-13T00:59:33;22.80;38.40
65568;DHT22;52211;50.154;8.682;2023-07-13T01:02:06;22.80;38.40
65568;DHT22;52211;50.154;8.682;2023-07-13T01:04:33;22.80;38.50
65568;DHT22;52211;50.154;8.682;2023-07-13T01:07:03;22.70;38.40
65568;DHT22;52211;50.154;8.682;2023-07-13T01:09:34;22.70;38.50
65568;DHT22;52211;50.154;8.682;2023-07-13T01:12:02;22.70;38.70
65568;DHT22;52211;50.154;8.682;2023-07-13T01:14:30;22.60;38.60
65568;DHT22;52211;50.154;8.682;2023-07-13T01:16:57;22.60;38.70
65568;DHT22;52211;50.154;8.682;2023-07-13T01:19:42;22.60;38.80
65568;DHT22;52211;50.154;8.682;2023-07-13T01:22:14;22.50;39.30
65568;DHT22;52211;50.154;8.682;2023-07-13T01:24:46;22.50;39.00
65568;DHT22;52211;50.154;8.682;2023-07-13T01:27:21;22.50;39.10
65568;DHT22;52211;50.154;8.682;2023-07-13T01:29:56;22.50;39.30
65568;DHT22;52211;50.154;8.682;2023-07-13T01:32:34;22.50;39.20
65568;DHT22;52211;50.154;8.682;2023-07-13T01:35:01;22.40;39.30
65568;DHT22;52211;50.154;8.682;2023-07-13T01:37:30;22.40;39.20
65568;DHT22;52211;50.154;8.682;2023-07-13T01:40:03;22.40;39.40
65568;DHT22;52211;50.154;8.682;2023-07-13T01:42:37;22.40;39.30
65568;DHT22;52211;50.154;8.682;2023-07-13T01:45:07;22.30;39.40
65568;DHT22;52211;50.154;8.682;2023-07-13T01:47:35;22.30;39.30
65568;DHT22;52211;50.154;8.682;2023-07-13T01:50:06;22.30;39.40
65568;DHT22;52211;50.154;8.682;2023-07-13T01:52:38;22.30;39.50
65568;DHT22;52211;50.154;8.682;2023-07-13T01:55:06;22.20;39.40
65568;DHT22;52211;50.154;8.682;2023-07-13T01:57:36;22.20;39.40
65568;DHT22;52211;50.154;8.682;2023-07-13T02:00:04;22.20;39.40
65568;DHT22;52211;50.154;8.682;2023-07-13T02:02:46;22.20;39.50
65568;DHT22;52211;50.154;8.682;2023-07-13T02:05:17;22.20;39.60
65568;DHT22;52211;50.154;8.682;2023-07-13T02:07:47;22.10;39.50
65568;DHT22;52211;50.154;8.682;2023-07-13T02:10:16;22.10;40.20
65568;DHT22;52211;50.154;8.682;2023-07-13T02:12:44;22.10;39.60
65568;DHT22;52211;50.154;8.682;2023-07-13T02:15:12;22.00;39.70
65568;DHT22;52211;50.154;8.682;2023-07-13T02:17:44;22.00;39.80
65568;DHT22;52211;50.154;8.682;2023-07-13T02:20:15;21.90;39.70
65568;DHT22;52211;50.154;8.682;2023-07-13T02:22:42;21.90;39.90
65568;DHT22;52211;50.154;8.682;2023-07-13T02:25:11;21.90;39.90
65568;DHT22;52211;50.154;8.682;2023-07-13T02:27:41;21.90;39.90
65568;DHT22;52211;50.154;8.682;2023-07-13T02:30:15;21.90;40.00
65568;DHT22;52211;50.154;8.682;2023-07-13T02:32:44;21.80;40.10
65568;DHT22;52211;50.154;8.682;2023-07-13T02:35:14;21.70;40.20
65568;DHT22;52211;50.154;8.682;2023-07-13T02:37:44;21.70;40.20
65568;DHT22;52211;50.154;8.682;2023-07-13T02:40:13;21.70;40.20
65568;DHT22;52211;50.154;8.682;2023-07-13T02:42:45;21.70;40.20
65568;DHT22;52211;50.154;8.682;2023-07-13T02:45:15;21.70;40.40
65568;DHT22;52211;50.154;8.682;2023-07-13T02:47:42;21.60;40.30
65568;DHT22;52211;50.154;8.682;2023-07-13T02:50:10;21.60;40.40
65568;DHT22;52211;50.154;8.682;2023-07-13T02:52:37;21.60;40.40
65568;DHT22;52211;50.154;8.682;2023-07-13T02:55:05;21.60;40.50
65568;DHT22;52211;50.154;8.682;2023-07-13T02:57:36;21.60;40.50
65568;DHT22;52211;50.154;8.682;2023-07-13T03:00:06;21.50;40.60
65568;DHT22;52211;50.154;8.682;2023-07-13T03:02:36;21.50;40.60
65568;DHT22;52211;50.154;8.682;2023-07-13T03:05:04;21.40;40.70
65568;DHT22;52211;50.154;8.682;2023-07-13T03:07:31;21.50;41.50
65568;DHT22;52211;50.154;8.682;2023-07-13T03:10:00;21.40;40.80
65568;DHT22;52211;50.154;8.682;2023-07-13T03:12:41;21.40;40.80
65568;DHT22;52211;50.154;8.682;2023-07-13T03:15:22;21.40;40.80
65568;DHT22;52211;50.154;8.682;2023-07-13T03:17:54;21.30;40.90
65568;DHT22;52211;50.154;8.682;2023-07-13T03:20:22;21.30;40.90
65568;DHT22;52211;50.154;8.682;2023-07-13T03:22:51;21.30;41.00
65568;DHT22;52211;50.154;8.682;2023-07-13T03:25:21;21.30;41.00
65568;DHT22;52211;50.154;8.682;2023-07-13T03:27:49;21.20;41.00
65568;DHT22;52211;50.154;8.682;2023-07-13T03:30:21;21.20;41.20
65568;DHT22;52211;50.154;8.682;2023-07-13T03:32:55;21.10;41.10
65568;DHT22;52211;50.154;8.682;2023-07-13T03:35:24;21.10;41.20
65568;DHT22;52211;50.154;8.682;2023-07-13T03:37:56;21.10;41.20
65568;DHT22;52211;50.154;8.682;2023-07-13T03:40:24;21.00;41.20
65568;DHT22;52211;50.154;8.682;2023-07-13T03:42:52;21.00;41.10
65568;DHT22;52211;50.154;8.682;2023-07-13T03:45:22;21.00;41.20
65568;DHT22;52211;50.154;8.682;2023-07-13T03:47:49;21.00;41.10
65568;DHT22;52211;50.154;8.682;2023-07-13T03:50:18;21.00;41.20
65568;DHT22;52211;50.154;8.682;2023-07-13T03:52:47;20.90;41.50
65568;DHT22;52211;50.154;8.682;2023-07-13T03:55:15;21.00;41.30
65568;DHT22;52211;50.154;8.682;2023-07-13T03:57:52;20.90;41.20
65568;DHT22;52211;50.154;8.682;2023-07-13T04:00:47;20.90;41.30
65568;DHT22;52211;50.154;8.682;2023-07-13T04:03:17;20.90;41.30
65568;DHT22;52211;50.154;8.682;2023-07-13T04:05:49;20.80;41.20
65568;DHT22;52211;50.154;8.682;2023-07-13T04:08:21;20.90;41.30
65568;DHT22;52211;50.154;8.682;2023-07-13T04:10:53;20.80;41.30
65568;DHT22;52211;50.154;8.682;2023-07-13T04:13:23;20.80;41.30
65568;DHT22;52211;50.154;8.682;2023-07-13T04:15:52;20.80;41.40
65568;DHT22;52211;50.154;8.682;2023-07-13T04:18:22;20.80;41.40
65568;DHT22;52211;50.154;8.682;2023-07-13T04:20:49;20.80;41.40
65568;DHT22;52211;50.154;8.682;2023-07-13T04:23:17;20.80;41.50
65568;DHT22;52211;50.154;8.682;2023-07-13T04:25:46;20.90;41.60
65568;DHT22;52211;50.154;8.682;2023-07-13T04:28:16;20.80;41.60
65568;DHT22;52211;50.154;8.682;2023-07-13T04:30:49;20.80;41.70
65568;DHT22;52211;50.154;8.682;2023-07-13T04:33:19;20.90;41.80
65568;DHT22;52211;50.154;8.682;2023-07-13T04:35:53;20.80;41.80
65568;DHT22;52211;50.154;8.682;2023-07-13T04:38:30;20.90;41.90
65568;DHT22;52211;50.154;8.682;2023-07-13T04:41:01;20.80;42.00
65568;DHT22;52211;50.154;8.682;2023-07-13T04:43:35;20.90;42.00
65568;DHT22;52211;50.154;8.682;2023-07-13T04:46:11;20.90;42.00
65568;DHT22;52211;50.154;8.682;2023-07-13T04:48:39;20.90;42.30
65568;DHT22;52211;50.154;8.682;2023-07-13T04:51:10;20.90;42.10
65568;DHT22;52211;50.154;8.682;2023-07-13T04:53:37;20.90;42.00
65568;DHT22;52211;50.154;8.682;2023-07-13T04:56:11;20.90;42.00
65568;DHT22;52211;50.154;8.682;2023-07-13T04:58:40;20.90;42.20
65568;DHT22;52211;50.154;8.682;2023-07-13T05:01:10;20.90;42.10
65568;DHT22;52211;50.154;8.682;2023-07-13T05:03:43;20.90;42.10
65568;DHT22;52211;50.154;8.682;2023-07-13T05:06:10;21.00;42.20
65568;DHT22;52211;50.154;8.682;2023-07-13T05:08:37;21.00;42.20
65568;DHT22;52211;50.154;8.682;2023-07-13T05:11:06;21.00;42.20
65568;DHT22;52211;50.154;8.682;2023-07-13T05:13:34;21.00;42.10
65568;DHT22;52211;50.154;8.682;2023-07-13T05:16:06;21.00;42.10
65568;DHT22;52211;50.154;8.682;2023-07-13T05:18:35;21.00;42.10
65568;DHT22;52211;50.154;8.682;2023-07-13T05:21:08;21.00;42.10
65568;DHT22;52211;50.154;8.682;2023-07-13T05:23:42;21.00;42.10
65568;DHT22;52211;50.154;8.682;2023-07-13T05:26:10;21.00;42.10
65568;DHT22;52211;50.154;8.682;2023-07-13T05:28:38;21.10;42.80
65568;DHT22;52211;50.154;8.682;2023-07-13T05:31:09;21.10;42.10
65568;DHT22;52211;50.154;8.682;2023-07-13T05:33:40;21.10;42.00
65568;DHT22;52211;50.154;8.682;2023-07-13T05:36:11;21.10;42.00
65568;DHT22;52211;50.154;8.682;2023-07-13T05:38:45;21.10;42.00
65568;DHT22;52211;50.154;8.682;2023-07-13T05:41:14;21.20;42.00
65568;DHT22;52211;50.154;8.682;2023-07-13T05:43:46;21.20;41.90
65568;DHT22;52211;50.154;8.682;2023-07-13T05:46:15;21.30;41.90
65568;DHT22;52211;50.154;8.682;2023-07-13T05:48:45;21.30;41.90
65568;DHT22;52211;50.154;8.682;2023-07-13T05:51:14;21.30;41.80
65568;DHT22;52211;50.154;8.682;2023-07-13T05:53:44;21.40;41.80
65568;DHT22;52211;50.154;8.682;2023-07-13T05:56:11;21.40;41.80
65568;DHT22;52211;50.154;8.682;2023-07-13T05:58:40;21.40;41.80
65568;DHT22;52211;50.154;8.682;2023-07-13T06:01:13;21.50;41.80
65568;DHT22;52211;50.154;8.682;2023-07-13T06:03:48;21.50;41.80
65568;DHT22;52211;50.154;8.682;2023-07-13T06:06:22;21.50;41.70
65568;DHT22;52211;50.154;8.682;2023-07-13T06:08:52;21.50;41.60
65568;DHT22;52211;50.154;8.682;2023-07-13T06:11:25;21.60;41.70
65568;DHT22;52211;50.154;8.682;2023-07-13T06:13:54;21.60;41.60
65568;DHT22;52211;50.154;8.682;2023-07-13T06:16:23;21.60;41.60
65568;DHT22;52211;50.154;8.682;2023-07-13T06:18:53;21.70;41.60
65568;DHT22;52211;50.154;8.682;2023-07-13T06:21:23;21.70;41.50
65568;DHT22;52211;50.154;8.682;2023-07-13T06:23:52;21.80;41.40
65568;DHT22;52211;50.154;8.682;2023-07-13T06:26:22;21.80;41.50
65568;DHT22;52211;50.154;8.682;2023-07-13T06:28:51;21.90;41.50
65568;DHT22;52211;50.154;8.682;2023-07-13T06:31:21;21.90;41.40
65568;DHT22;52211;50.154;8.682;2023-07-13T06:33:51;21.90;41.40
65568;DHT22;52211;50.154;8.682;2023-07-13T06:36:18;22.00;41.40
65568;DHT22;52211;50.154;8.682;2023-07-13T06:38:45;22.00;41.40
65568;DHT22;52211;50.154;8.682;2023-07-13T06:41:14;22.00;41.30
65568;DHT22;52211;50.154;8.682;2023-07-13T06:43:46;22.00;41.30
65568;DHT22;52211;50.154;8.682;2023-07-13T06:46:15;22.10;41.30
65568;DHT22;52211;50.154;8.682;2023-07-13T06:48:42;22.10;41.30
65568;DHT22;52211;50.154;8.682;2023-07-13T06:51:11;22.20;41.30
65568;DHT22;52211;50.154;8.682;2023-07-13T06:53:45;22.20;41.40
65568;DHT22;52211;50.154;8.682;2023-07-13T06:56:19;22.20;41.30
65568;DHT22;52211;50.154;8.682;2023-07-13T06:58:48;22.30;41.40
65568;DHT22;52211;50.154;8.682;2023-07-13T07:01:15;22.40;41.40
65568;DHT22;52211;50.154;8.682;2023-07-13T07:03:44;22.40;41.40
65568;DHT22;52211;50.154;8.682;2023-07-13T07:08:43;22.50;41.40
65568;DHT22;52211;50.154;8.682;2023-07-13T07:11:18;22.60;41.40
65568;DHT22;52211;50.154;8.682;2023-07-13T07:13:53;22.60;41.30
65568;DHT22;52211;50.154;8.682;2023-07-13T07:16:24;22.70;41.30
65568;DHT22;52211;50.154;8.682;2023-07-13T07:18:51;22.70;41.20
65568;DHT22;52211;50.154;8.682;2023-07-13T07:21:22;22.80;41.10
65568;DHT22;52211;50.154;8.682;2023-07-13T07:23:52;22.80;41.00
65568;DHT22;52211;50.154;8.682;2023-07-13T07:26:21;22.90;41.00
65568;DHT22;52211;50.154;8.682;2023-07-13T07:28:56;23.00;40.90
65568;DHT22;52211;50.154;8.682;2023-07-13T07:31:28;23.00;40.90
65568;DHT22;52211;50.154;8.682;2023-07-13T07:34:02;23.10;40.60
65568;DHT22;52211;50.154;8.682;2023-07-13T07:36:32;23.20;40.60
65568;DHT22;52211;50.154;8.682;2023-07-13T07:39:04;23.20;40.50
65568;DHT22;52211;50.154;8.682;2023-07-13T07:41:33;23.30;40.50
65568;DHT22;52211;50.154;8.682;2023-07-13T07:44:08;23.40;40.40
65568;DHT22;52211;50.154;8.682;2023-07-13T07:46:39;23.40;40.40
65568;DHT22;52211;50.154;8.682;2023-07-13T07:49:11;23.50;41.00
65568;DHT22;52211;50.154;8.682;2023-07-13T07:51:38;23.50;40.20
65568;DHT22;52211;50.154;8.682;2023-07-13T07:54:12;23.60;40.20
65568;DHT22;52211;50.154;8.682;2023-07-13T07:56:45;23.70;40.00
65568;DHT22;52211;50.154;8.682;2023-07-13T07:59:32;23.80;39.90
65568;DHT22;52211;50.154;8.682;2023-07-13T08:02:05;23.90;39.70
65568;DHT22;52211;50.154;8.682;2023-07-13T08:04:56;23.90;39.70
65568;DHT22;52211;50.154;8.682;2023-07-13T08:07:33;24.00;39.60
65568;DHT22;52211;50.154;8.682;2023-07-13T08:10:02;24.00;39.30
65568;DHT22;52211;50.154;8.682;2023-07-13T08:12:37;24.10;39.10
65568;DHT22;52211;50.154;8.682;2023-07-13T08:15:28;24.20;39.10
65568;DHT22;52211;50.154;8.682;2023-07-13T08:17:55;24.20;39.20
65568;DHT22;52211;50.154;8.682;2023-07-13T08:20:25;24.30;39.10
65568;DHT22;52211;50.154;8.682;2023-07-13T08:22:54;24.30;39.10
65568;DHT22;52211;50.154;8.682;2023-07-13T08:25:24;24.40;39.00
65568;DHT22;52211;50.154;8.682;2023-07-13T08:27:50;24.40;38.80
65568;DHT22;52211;50.154;8.682;2023-07-13T08:30:24;24.50;38.60
65568;DHT22;52211;50.154;8.682;2023-07-13T08:32:53;24.60;38.20
65568;DHT22;52211;50.154;8.682;2023-07-13T08:35:22;24.70;37.90
65568;DHT22;52211;50.154;8.682;2023-07-13T08:37:54;24.70;38.00
65568;DHT22;52211;50.154;8.682;2023-07-13T08:40:25;24.70;38.00
65568;DHT22;52211;50.154;8.682;2023-07-13T08:42:55;24.80;36.80
65568;DHT22;52211;50.154;8.682;2023-07-13T08:45:44;24.80;37.60
65568;DHT22;52211;50.154;8.682;2023-07-13T08:48:22;24.90;37.40
65568;DHT22;52211;50.154;8.682;2023-07-13T08:53:51;25.00;37.50
65568;DHT22;52211;50.154;8.682;2023-07-13T08:56:26;25.10;37.20
65568;DHT22;52211;50.154;8.682;2023-07-13T08:59:09;25.20;37.30
65568;DHT22;52211;50.154;8.682;2023-07-13T09:04:37;25.20;36.80
65568;DHT22;52211;50.154;8.682;2023-07-13T09:15:37;25.40;36.50
65568;DHT22;52211;50.154;8.682;2023-07-13T09:18:35;25.50;36.20
65568;DHT22;52211;50.154;8.682;2023-07-13T09:21:13;25.50;36.10
65568;DHT22;52211;50.154;8.682;2023-07-13T09:23:46;25.60;36.20
65568;DHT22;52211;50.154;8.682;2023-07-13T09:26:21;25.60;36.00
65568;DHT22;52211;50.154;8.682;2023-07-13T09:29:01;25.60;36.10
65568;DHT22;52211;50.154;8.682;2023-07-13T09:31:43;25.60;35.70
65568;DHT22;52211;50.154;8.682;2023-07-13T09:34:16;25.60;35.50
65568;DHT22;52211;50.154;8.682;2023-07-13T09:36:48;25.70;35.90
65568;DHT22;52211;50.154;8.682;2023-07-13T09:39:31;25.70;35.90
65568;DHT22;52211;50.154;8.682;2023-07-13T09:45:00;25.90;35.80
65568;DHT22;52211;50.154;8.682;2023-07-13T09:47:38;25.90;35.90
65568;DHT22;52211;50.154;8.682;2023-07-13T09:50:15;26.00;35.80
65568;DHT22;52211;50.154;8.682;2023-07-13T09:52:49;26.10;35.50
65568;DHT22;52211;50.154;8.682;2023-07-13T09:55:24;26.20;35.40
65568;DHT22;52211;50.154;8.682;2023-07-13T09:58:08;26.30;35.30
65568;DHT22;52211;50.154;8.682;2023-07-13T10:01:03;26.30;35.30
65568;DHT22;52211;50.154;8.682;2023-07-13T10:03:38;26.30;35.20
65568;DHT22;52211;50.154;8.682;2023-07-13T10:06:16;26.40;35.20
65568;DHT22;52211;50.154;8.682;2023-07-13T10:08:54;26.40;35.40
65568;DHT22;52211;50.154;8.682;2023-07-13T10:11:27;26.50;35.40
65568;DHT22;52211;50.154;8.682;2023-07-13T10:14:02;26.50;34.90
65568;DHT22;52211;50.154;8.682;2023-07-13T10:16:38;26.70;35.00
65568;DHT22;52211;50.154;8.682;2023-07-13T10:19:15;26.70;34.60
65568;DHT22;52211;50.154;8.682;2023-07-13T10:22:02;26.80;34.70
65568;DHT22;52211;50.154;8.682;2023-07-13T10:24:41;26.90;34.60
65568;DHT22;52211;50.154;8.682;2023-07-13T10:27:19;27.00;34.80
65568;DHT22;52211;50.154;8.682;2023-07-13T10:32:50;27.10;33.60
65568;DHT22;52211;50.154;8.682;2023-07-13T10:35:19;27.20;34.70
65568;DHT22;52211;50.154;8.682;2023-07-13T10:37:57;27.30;34.70
65568;DHT22;52211;50.154;8.682;2023-07-13T10:41:03;27.30;34.50
65568;DHT22;52211;50.154;8.682;2023-07-13T10:43:41;27.40;34.40
65568;DHT22;52211;50.154;8.682;2023-07-13T10:46:13;27.40;34.30
65568;DHT22;52211;50.154;8.682;2023-07-13T10:48:44;27.50;34.30
65568;DHT22;52211;50.154;8.682;2023-07-13T10:51:19;27.60;34.40
65568;DHT22;52211;50.154;8.682;2023-07-13T10:54:10;27.70;34.10
65568;DHT22;52211;50.154;8.682;2023-07-13T10:56:46;27.70;33.70
65568;DHT22;52211;50.154;8.682;2023-07-13T10:59:26;27.80;33.70
65568;DHT22;52211;50.154;8.682;2023-07-13T11:01:58;27.80;33.20
65568;DHT22;52211;50.154;8.682;2023-07-13T11:04:43;27.80;33.60
65568;DHT22;52211;50.154;8.682;2023-07-13T11:07:23;27.80;33.20
65568;DHT22;52211;50.154;8.682;2023-07-13T11:09:56;27.80;33.10
65568;DHT22;52211;50.154;8.682;2023-07-13T11:15:43;28.00;33.50
65568;DHT22;52211;50.154;8.682;2023-07-13T11:18:24;28.20;32.90
65568;DHT22;52211;50.154;8.682;2023-07-13T11:21:13;28.50;32.80
65568;DHT22;52211;50.154;8.682;2023-07-13T11:26:46;29.00;32.70
65568;DHT22;52211;50.154;8.682;2023-07-13T11:32:00;29.50;31.90
65568;DHT22;52211;50.154;8.682;2023-07-13T11:34:50;29.60;32.00
65568;DHT22;52211;50.154;8.682;2023-07-13T11:37:20;29.70;32.60
65568;DHT22;52211;50.154;8.682;2023-07-13T11:39:58;29.70;31.50
65568;DHT22;52211;50.154;8.682;2023-07-13T11:42:28;29.70;31.60
65568;DHT22;52211;50.154;8.682;2023-07-13T11:44:59;29.80;31.10
65568;DHT22;52211;50.154;8.682;2023-07-13T11:47:40;29.80;30.70
65568;DHT22;52211;50.154;8.682;2023-07-13T11:50:19;29.90;30.50
65568;DHT22;52211;50.154;8.682;2023-07-13T11:52:52;29.90;30.50
65568;DHT22;52211;50.154;8.682;2023-07-13T11:55:30;30.00;30.80
65568;DHT22;52211;50.154;8.682;2023-07-13T11:58:00;30.10;31.20
65568;DHT22;52211;50.154;8.682;2023-07-13T12:00:32;30.30;30.70
65568;DHT22;52211;50.154;8.682;2023-07-13T12:03:01;30.40;30.40
65568;DHT22;52211;50.154;8.682;2023-07-13T12:05:34;30.40;30.10
65568;DHT22;52211;50.154;8.682;2023-07-13T12:08:09;30.20;30.00
65568;DHT22;52211;50.154;8.682;2023-07-13T12:10:56;30.20;30.00
65568;DHT22;52211;50.154;8.682;2023-07-13T12:13:37;30.10;29.90
65568;DHT22;52211;50.154;8.682;2023-07-13T12:16:15;30.10;30.00
65568;DHT22;52211;50.154;8.682;2023-07-13T12:18:55;30.10;29.80
65568;DHT22;52211;50.154;8.682;2023-07-13T12:21:38;30.10;29.90
65568;DHT22;52211;50.154;8.682;2023-07-13T12:24:15;30.00;29.90
65568;DHT22;52211;50.154;8.682;2023-07-13T12:26:55;30.00;29.90
65568;DHT22;52211;50.154;8.682;2023-07-13T12:29:31;30.00;29.90
65568;DHT22;52211;50.154;8.682;2023-07-13T12:31:59;29.90;30.00
65568;DHT22;52211;50.154;8.682;2023-07-13T12:34:29;29.80;29.80
65568;DHT22;52211;50.154;8.682;2023-07-13T12:37:01;29.70;29.80
65568;DHT22;52211;50.154;8.682;2023-07-13T12:39:44;29.60;29.90
65568;DHT22;52211;50.154;8.682;2023-07-13T12:47:49;29.20;29.90
65568;DHT22;52211;50.154;8.682;2023-07-13T12:50:24;29.10;29.80
65568;DHT22;52211;50.154;8.682;2023-07-13T12:53:02;29.00;30.00
65568;DHT22;52211;50.154;8.682;2023-07-13T12:55:50;28.90;30.00
65568;DHT22;52211;50.154;8.682;2023-07-13T12:58:39;28.80;29.90
65568;DHT22;52211;50.154;8.682;2023-07-13T13:01:17;28.80;29.90
65568;DHT22;52211;50.154;8.682;2023-07-13T13:03:50;28.80;30.00
65568;DHT22;52211;50.154;8.682;2023-07-13T13:06:29;28.80;30.00
65568;DHT22;52211;50.154;8.682;2023-07-13T13:08:59;28.70;29.80
65568;DHT22;52211;50.154;8.682;2023-07-13T13:11:33;28.70;29.90
65568;DHT22;52211;50.154;8.682;2023-07-13T13:14:06;28.60;29.90
65568;DHT22;52211;50.154;8.682;2023-07-13T13:16:47;28.60;30.00
65568;DHT22;52211;50.154;8.682;2023-07-13T13:21:48;28.40;29.90
65568;DHT22;52211;50.154;8.682;2023-07-13T13:24:21;28.30;29.80
65568;DHT22;52211;50.154;8.682;2023-07-13T13:26:51;28.30;29.90
65568;DHT22;52211;50.154;8.682;2023-07-13T13:29:21;28.30;30.00
65568;DHT22;52211;50.154;8.682;2023-07-13T13:31:54;28.30;30.00
65568;DHT22;52211;50.154;8.682;2023-07-13T13:34:23;28.30;30.00
65568;DHT22;52211;50.154;8.682;2023-07-13T13:36:52;28.30;30.00
65568;DHT22;52211;50.154;8.682;2023-07-13T13:39:34;28.30;30.00
65568;DHT22;52211;50.154;8.682;2023-07-13T13:42:03;28.40;30.00
65568;DHT22;52211;50.154;8.682;2023-07-13T13:44:32;28.60;30.10
65568;DHT22;52211;50.154;8.682;2023-07-13T13:46:59;28.70;29.90
65568;DHT22;52211;50.154;8.682;2023-07-13T13:49:27;28.80;29.70
65568;DHT22;52211;50.154;8.682;2023-07-13T13:51:58;28.90;29.50
65568;DHT22;52211;50.154;8.682;2023-07-13T13:54:28;28.80;29.20
65568;DHT22;52211;50.154;8.682;2023-07-13T13:57:00;28.80;29.40
65568;DHT22;52211;50.154;8.682;2023-07-13T13:59:29;28.80;29.60
65568;DHT22;52211;50.154;8.682;2023-07-13T14:01:59;28.80;29.70
65568;DHT22;52211;50.154;8.682;2023-07-13T14:04:28;28.80;29.60
65568;DHT22;52211;50.154;8.682;2023-07-13T14:06:55;28.80;29.60
65568;DHT22;52211;50.154;8.682;2023-07-13T14:09:22;28.70;29.70
65568;DHT22;52211;50.154;8.682;2023-07-13T14:11:50;28.70;29.70
65568;DHT22;52211;50.154;8.682;2023-07-13T14:14:22;28.70;29.60
65568;DHT22;52211;50.154;8.682;2023-07-13T14:16:53;28.70;29.80
65568;DHT22;52211;50.154;8.682;2023-07-13T14:19:23;28.80;30.00
65568;DHT22;52211;50.154;8.682;2023-07-13T14:21:55;28.80;30.10
65568;DHT22;52211;50.154;8.682;2023-07-13T14:24:27;28.90;30.10
65568;DHT22;52211;50.154;8.682;2023-07-13T14:26:59;29.00;30.10
65568;DHT22;52211;50.154;8.682;2023-07-13T14:29:31;29.10;30.10
65568;DHT22;52211;50.154;8.682;2023-07-13T14:32:02;29.10;30.10
65568;DHT22;52211;50.154;8.682;2023-07-13T14:34:32;29.10;30.00
65568;DHT22;52211;50.154;8.682;2023-07-13T14:37:02;29.00;30.00
65568;DHT22;52211;50.154;8.682;2023-07-13T14:39:31;29.00;30.00
65568;DHT22;52211;50.154;8.682;2023-07-13T14:41:58;28.90;30.00
65568;DHT22;52211;50.154;8.682;2023-07-13T14:44:29;28.90;30.00
65568;DHT22;52211;50.154;8.682;2023-07-13T14:47:00;28.80;29.90
65568;DHT22;52211;50.154;8.682;2023-07-13T14:49:42;28.70;30.00
65568;DHT22;52211;50.154;8.682;2023-07-13T14:52:17;28.70;29.90
65568;DHT22;52211;50.154;8.682;2023-07-13T14:54:52;28.60;30.00
65568;DHT22;52211;50.154;8.682;2023-07-13T14:57:25;28.50;29.90
65568;DHT22;52211;50.154;8.682;2023-07-13T14:59:51;28.40;30.00
65568;DHT22;52211;50.154;8.682;2023-07-13T15:02:28;28.40;30.00
65568;DHT22;52211;50.154;8.682;2023-07-13T15:05:01;28.40;30.10
65568;DHT22;52211;50.154;8.682;2023-07-13T15:07:34;28.50;30.20
65568;DHT22;52211;50.154;8.682;2023-07-13T15:10:01;28.70;30.30
65568;DHT22;52211;50.154;8.682;2023-07-13T15:12:31;28.80;30.00
65568;DHT22;52211;50.154;8.682;2023-07-13T15:14:58;29.00;30.00
65568;DHT22;52211;50.154;8.682;2023-07-13T15:17:26;29.10;30.00
65568;DHT22;52211;50.154;8.682;2023-07-13T15:20:00;29.30;29.90
65568;DHT22;52211;50.154;8.682;2023-07-13T15:22:28;29.50;29.90
65568;DHT22;52211;50.154;8.682;2023-07-13T15:24:55;29.60;29.60
65568;DHT22;52211;50.154;8.682;2023-07-13T15:27:30;29.60;29.50
65568;DHT22;52211;50.154;8.682;2023-07-13T15:30:00;29.60;29.50
65568;DHT22;52211;50.154;8.682;2023-07-13T15:32:30;29.60;29.60
65568;DHT22;52211;50.154;8.682;2023-07-13T15:34:59;29.60;29.60
65568;DHT22;52211;50.154;8.682;2023-07-13T15:37:33;29.50;29.60
65568;DHT22;52211;50.154;8.682;2023-07-13T15:40:03;29.50;29.70
65568;DHT22;52211;50.154;8.682;2023-07-13T15:42:30;29.60;29.80
65568;DHT22;52211;50.154;8.682;2023-07-13T15:45:01;29.60;29.70
65568;DHT22;52211;50.154;8.682;2023-07-13T15:47:31;29.60;29.60
65568;DHT22;52211;50.154;8.682;2023-07-13T15:50:04;29.60;29.40
65568;DHT22;52211;50.154;8.682;2023-07-13T15:52:32;29.50;29.30
65568;DHT22;52211;50.154;8.682;2023-07-13T15:55:02;29.50;29.30
65568;DHT22;52211;50.154;8.682;2023-07-13T15:57:32;29.50;29.40
65568;DHT22;52211;50.154;8.682;2023-07-13T16:00:02;29.40;29.40
65568;DHT22;52211;50.154;8.682;2023-07-13T16:02:38;29.40;29.40
65568;DHT22;52211;50.154;8.682;2023-07-13T16:05:08;29.40;29.30
65568;DHT22;52211;50.154;8.682;2023-07-13T16:07:35;29.30;29.30
65568;DHT22;52211;50.154;8.682;2023-07-13T16:10:04;29.20;29.30
65568;DHT22;52211;50.154;8.682;2023-07-13T16:12:31;29.10;29.80
65568;DHT22;52211;50.154;8.682;2023-07-13T16:15:08;29.10;29.30
65568;DHT22;52211;50.154;8.682;2023-07-13T16:17:39;29.00;29.40
65568;DHT22;52211;50.154;8.682;2023-07-13T16:20:09;29.00;29.40
65568;DHT22;52211;50.154;8.682;2023-07-13T16:22:51;29.00;29.40
65568;DHT22;52211;50.154;8.682;2023-07-13T16:25:25;28.90;29.30
65568;DHT22;52211;50.154;8.682;2023-07-13T16:27:54;29.00;29.40
65568;DHT22;52211;50.154;8.682;2023-07-13T16:30:29;28.90;29.50
65568;DHT22;52211;50.154;8.682;2023-07-13T16:33:03;28.90;29.50
65568;DHT22;52211;50.154;8.682;2023-07-13T16:35:36;28.90;29.50
65568;DHT22;52211;50.154;8.682;2023-07-13T16:38:19;28.90;29.50
65568;DHT22;52211;50.154;8.682;2023-07-13T16:40:50;28.80;29.60
65568;DHT22;52211;50.154;8.682;2023-07-13T16:43:18;28.80;29.70